Time,TemperatureF,DewpointF,PressureIn,WindDirection,WindDirectionDegrees,WindSpeedMPH,WindSpeedGustMPH,Humidity,HourlyPrecipIn,Conditions,Clouds,dailyrainin,SoftwareType,DateUTC
2013-01-23 00:01:00,42.3,1.7,30.17,NNW,343,0.0,3.0,18,0.00,,,0.00,WUHU216DAVISVP2,2013-01-23 08:01:00,
2013-01-23 00:06:00,42.2,2.8,30.17,NNW,343,3.0,3.0,19,0.00,,,0.00,WUHU216DAVISVP2,2013-01-23 08:06:00,
2013-01-23 00:11:00,42.6,0.7,30.16,NNW,343,0.0,3.0,17,0.00,,,0.00,WUHU216DAVISVP2,2013-01-23 08:11:00,
2013-01-23 00:16:00,41.3,0.9,30.16,NNW,343,4.0,4.0,18,0.00,,,0.00,WUHU216DAVISVP2,2013-01-23 08:16:00,
2013-01-23 00:21:00,39.9,-0.2,30.16,NNW,343,3.0,5.0,18,0.00,,,0.00,WUHU216DAVISVP2,2013-01-23 08:21:00,
2013-01-23 00:26:00,40.8,1.7,30.16,NNW,343,2.0,5.0,19,0.00,,,0.00,WUHU216DAVISVP2,2013-01-23 08:26:00,
2013-01-23 00:31:00,40.4,1.3,30.16,NNW,343,2.0,5.0,19,0.00,,,0.00,WUHU216DAVISVP2,2013-01-23 08:31:00,
2013-01-23 00:37:00,40.0,2.1,30.16,NNW,343,2.0,5.0,20,0.00,,,0.00,WUHU216DAVISVP2,2013-01-23 08:37:00,
2013-01-23 00:42:00,40.6,3.6,30.16,NNW,343,4.0,4.0,21,0.00,,,0.00,WUHU216DAVISVP2,2013-01-23 08:42:00,
2013-01-23 00:47:00,41.3,0.9,30.16,NNW,343,0.0,5.0,18,0.00,,,0.00,WUHU216DAVISVP2,2013-01-23 08:47:00,
2013-01-23 00:52:00,41.2,2.0,30.16,NNW,343,2.0,5.0,19,0.00,,,0.00,WUHU216DAVISVP2,2013-01-23 08:52:00,
2013-01-23 00:57:00,41.2,3.1,30.16,NNW,343,2.0,5.0,20,0.00,,,0.00,WUHU216DAVISVP2,2013-01-23 08:57:00,
2013-01-23 01:02:00,41.9,1.4,30.16,NNW,343,0.0,3.0,18,0.00,,,0.00,WUHU216DAVISVP2,2013-01-23 09:02:00,
2013-01-23 01:07:00,40.5,0.3,30.16,NNW,343,3.0,3.0,18,0.00,,,0.00,WUHU216DAVISVP2,2013-01-23 09:07:00,
2013-01-23 01:12:00,39.0,1.2,30.15,NNW,343,3.0,4.0,20,0.00,,,0.00,WUHU216DAVISVP2,2013-01-23 09:12:00,
2013-01-23 01:17:00,39.5,2.7,30.15,NNW,343,4.0,4.0,21,0.00,,,0.00,WUHU216DAVISVP2,2013-01-23 09:17:00,
2013-01-23 01:22:00,40.3,1.2,30.15,NNW,343,3.0,5.0,19,0.00,,,0.00,WUHU216DAVISVP2,2013-01-23 09:22:00,
2013-01-23 01:27:00,39.8,3.0,30.15,NNW,343,2.0,5.0,21,0.00,,,0.00,WUHU216DAVISVP2,2013-01-23 09:27:00,
2013-01-23 01:33:00,41.0,4.0,30.15,NNW,343,0.0,5.0,21,0.00,,,0.00,WUHU216DAVISVP2,2013-01-23 09:33:00,
2013-01-23 01:38:00,42.4,4.1,30.15,NNW,343,2.0,4.0,20,0.00,,,0.00,WUHU216DAVISVP2,2013-01-23 09:38:00,
2013-01-23 01:43:00,43.4,4.9,30.15,NNW,343,1.0,3.0,20,0.00,,,0.00,WUHU216DAVISVP2,2013-01-23 09:43:00,
2013-01-23 01:49:00,44.1,4.4,30.15,NNW,343,4.0,4.0,19,0.00,,,0.00,WUHU216DAVISVP2,2013-01-23 09:49:00,
2013-01-23 01:54:00,44.4,2.2,30.15,NNW,341,1.0,5.0,17,0.00,,,0.00,WUHU216DAVISVP2,2013-01-23 09:54:00,
2013-01-23 01:59:00,42.8,0.9,30.15,NNW,341,2.0,5.0,17,0.00,,,0.00,WUHU216DAVISVP2,2013-01-23 09:59:00,
2013-01-23 02:04:00,43.1,4.7,30.16,NNW,341,1.0,5.0,20,0.00,,,0.00,WUHU216DAVISVP2,2013-01-23 10:04:00,
2013-01-23 02:09:00,43.4,3.8,30.16,NNW,341,3.0,4.0,19,0.00,,,0.00,WUHU216DAVISVP2,2013-01-23 10:09:00,
2013-01-23 02:14:00,42.3,2.9,30.15,NNW,341,4.0,4.0,19,0.00,,,0.00,WUHU216DAVISVP2,2013-01-23 10:14:00,
2013-01-23 02:19:00,42.7,4.3,30.15,NNW,341,1.0,5.0,20,0.00,,,0.00,WUHU216DAVISVP2,2013-01-23 10:19:00,
2013-01-23 02:25:00,43.4,4.9,30.15,NNW,341,2.0,5.0,20,0.00,,,0.00,WUHU216DAVISVP2,2013-01-23 10:25:00,
2013-01-23 02:30:00,43.9,4.2,30.15,NNW,341,1.0,5.0,19,0.00,,,0.00,WUHU216DAVISVP2,2013-01-23 10:30:00,
2013-01-23 02:35:00,43.7,4.1,30.15,NNW,341,1.0,4.0,19,0.00,,,0.00,WUHU216DAVISVP2,2013-01-23 10:35:00,
2013-01-23 02:40:00,43.9,4.2,30.15,NNW,341,0.0,3.0,19,0.00,,,0.00,WUHU216DAVISVP2,2013-01-23 10:40:00,
2013-01-23 02:45:00,44.2,4.5,30.16,NNW,341,0.0,3.0,19,0.00,,,0.00,WUHU216DAVISVP2,2013-01-23 10:45:00,
2013-01-23 02:50:00,44.8,5.0,30.16,NNW,341,1.0,3.0,19,0.00,,,0.00,WUHU216DAVISVP2,2013-01-23 10:50:00,
2013-01-23 02:55:00,44.0,3.1,30.15,NNW,341,4.0,4.0,18,0.00,,,0.00,WUHU216DAVISVP2,2013-01-23 10:55:00,
2013-01-23 03:00:00,43.3,3.7,30.15,NNW,341,3.0,5.0,19,0.00,,,0.00,WUHU216DAVISVP2,2013-01-23 11:00:00,
2013-01-23 03:05:00,43.1,4.7,30.15,NNW,341,0.0,5.0,20,0.00,,,0.00,WUHU216DAVISVP2,2013-01-23 11:05:00,
2013-01-23 03:10:00,43.4,4.9,30.15,NNW,341,0.0,5.0,20,0.00,,,0.00,WUHU216DAVISVP2,2013-01-23 11:10:00,
2013-01-23 03:15:00,43.7,5.2,30.15,NNW,341,0.0,5.0,20,0.00,,,0.00,WUHU216DAVISVP2,2013-01-23 11:15:00,
2013-01-23 03:20:00,44.1,5.5,30.15,NNW,341,1.0,5.0,20,0.00,,,0.00,WUHU216DAVISVP2,2013-01-23 11:20:00,
2013-01-23 03:26:00,44.5,4.7,30.15,NNW,341,0.0,3.0,19,0.00,,,0.00,WUHU216DAVISVP2,2013-01-23 11:26:00,
2013-01-23 03:31:00,44.6,4.8,30.15,NNW,341,0.0,3.0,19,0.00,,,0.00,WUHU216DAVISVP2,2013-01-23 11:31:00,
2013-01-23 03:36:00,44.3,4.6,30.15,NNW,341,0.0,3.0,19,0.00,,,0.00,WUHU216DAVISVP2,2013-01-23 11:36:00,
2013-01-23 03:41:00,44.3,4.6,30.14,NNW,341,0.0,3.0,19,0.00,,,0.00,WUHU216DAVISVP2,2013-01-23 11:41:00,
2013-01-23 03:46:00,44.4,4.6,30.14,NNW,341,0.0,3.0,19,0.00,,,0.00,WUHU216DAVISVP2,2013-01-23 11:46:00,
2013-01-23 03:51:00,44.3,5.7,30.14,NNW,341,1.0,3.0,20,0.00,,,0.00,WUHU216DAVISVP2,2013-01-23 11:51:00,
2013-01-23 03:56:00,44.0,4.3,30.14,NNW,341,1.0,3.0,19,0.00,,,0.00,WUHU216DAVISVP2,2013-01-23 11:56:00,
2013-01-23 04:01:00,44.2,5.6,30.14,NNW,341,0.0,3.0,20,0.00,,,0.00,WUHU216DAVISVP2,2013-01-23 12:01:00,
2013-01-23 04:07:00,44.9,5.1,30.14,NNW,341,1.0,3.0,19,0.00,,,0.00,WUHU216DAVISVP2,2013-01-23 12:07:00,
2013-01-23 04:12:00,45.0,5.1,30.14,NNW,341,0.0,3.0,19,0.00,,,0.00,WUHU216DAVISVP2,2013-01-23 12:12:00,
2013-01-23 04:17:00,45.0,5.1,30.14,NNW,341,1.0,3.0,19,0.00,,,0.00,WUHU216DAVISVP2,2013-01-23 12:17:00,
2013-01-23 04:22:00,44.5,4.7,30.14,NNW,341,0.0,3.0,19,0.00,,,0.00,WUHU216DAVISVP2,2013-01-23 12:22:00,
2013-01-23 04:27:00,44.2,4.5,30.14,NNW,334,3.0,4.0,19,0.00,,,0.00,WUHU216DAVISVP2,2013-01-23 12:27:00,
2013-01-23 04:32:00,45.0,5.1,30.14,NNW,334,0.0,4.0,19,0.00,,,0.00,WUHU216DAVISVP2,2013-01-23 12:32:00,
2013-01-23 04:37:00,44.9,5.1,30.14,NNW,334,3.0,4.0,19,0.00,,,0.00,WUHU216DAVISVP2,2013-01-23 12:37:00,
2013-01-23 04:42:00,45.1,5.2,30.13,NNW,334,1.0,4.0,19,0.00,,,0.00,WUHU216DAVISVP2,2013-01-23 12:42:00,
2013-01-23 04:47:00,45.4,5.5,30.14,NNW,334,0.0,4.0,19,0.00,,,0.00,WUHU216DAVISVP2,2013-01-23 12:47:00,
2013-01-23 04:52:00,45.5,4.4,30.13,NNW,334,1.0,4.0,18,0.00,,,0.00,WUHU216DAVISVP2,2013-01-23 12:52:00,
2013-01-23 04:58:00,44.5,4.7,30.13,NNW,334,2.0,4.0,19,0.00,,,0.00,WUHU216DAVISVP2,2013-01-23 12:58:00,
2013-01-23 05:03:00,44.9,5.1,30.13,NNW,334,2.0,4.0,19,0.00,,,0.00,WUHU216DAVISVP2,2013-01-23 13:03:00,
2013-01-23 05:08:00,45.4,5.5,30.13,NNW,334,2.0,4.0,19,0.00,,,0.00,WUHU216DAVISVP2,2013-01-23 13:08:00,
2013-01-23 05:13:00,45.9,4.7,30.13,NNW,334,2.0,4.0,18,0.00,,,0.00,WUHU216DAVISVP2,2013-01-23 13:13:00,
2013-01-23 05:18:00,46.1,4.9,30.13,NNW,334,3.0,4.0,18,0.00,,,0.00,WUHU216DAVISVP2,2013-01-23 13:18:00,
2013-01-23 05:23:00,46.3,5.0,30.13,NNW,334,0.0,3.0,18,0.00,,,0.00,WUHU216DAVISVP2,2013-01-23 13:23:00,
2013-01-23 05:28:00,46.1,3.6,30.14,NNW,334,2.0,3.0,17,0.00,,,0.00,WUHU216DAVISVP2,2013-01-23 13:28:00,
2013-01-23 05:33:00,45.3,4.2,30.14,NNW,334,0.0,3.0,18,0.00,,,0.00,WUHU216DAVISVP2,2013-01-23 13:33:00,
2013-01-23 05:38:00,45.1,5.2,30.14,NNW,334,0.0,3.0,19,0.00,,,0.00,WUHU216DAVISVP2,2013-01-23 13:38:00,
2013-01-23 05:43:00,45.2,5.3,30.14,NNW,334,0.0,3.0,19,0.00,,,0.00,WUHU216DAVISVP2,2013-01-23 13:43:00,
2013-01-23 05:49:00,45.7,4.5,30.14,NNW,334,2.0,3.0,18,0.00,,,0.00,WUHU216DAVISVP2,2013-01-23 13:49:00,
2013-01-23 05:54:00,46.3,5.0,30.14,NNW,334,0.0,3.0,18,0.00,,,0.00,WUHU216DAVISVP2,2013-01-23 13:54:00,
2013-01-23 05:59:00,46.0,4.8,30.15,NNW,334,0.0,3.0,18,0.00,,,0.00,WUHU216DAVISVP2,2013-01-23 13:59:00,
2013-01-23 06:04:00,45.3,4.2,30.15,NNW,334,1.0,3.0,18,0.00,,,0.00,WUHU216DAVISVP2,2013-01-23 14:04:00,
2013-01-23 06:09:00,44.4,4.6,30.14,NNW,334,1.0,3.0,19,0.00,,,0.00,WUHU216DAVISVP2,2013-01-23 14:09:00,
2013-01-23 06:14:00,43.6,4.0,30.15,NNW,334,3.0,3.0,19,0.00,,,0.00,WUHU216DAVISVP2,2013-01-23 14:14:00,
2013-01-23 06:19:00,43.7,5.2,30.14,NNW,334,0.0,3.0,20,0.00,,,0.00,WUHU216DAVISVP2,2013-01-23 14:19:00,
2013-01-23 06:24:00,44.1,4.4,30.14,NNW,334,0.0,3.0,19,0.00,,,0.00,WUHU216DAVISVP2,2013-01-23 14:24:00,
2013-01-23 06:29:00,44.7,6.0,30.15,NNW,334,1.0,4.0,20,0.00,,,0.00,WUHU216DAVISVP2,2013-01-23 14:29:00,
2013-01-23 06:35:00,45.9,5.9,30.15,NNW,334,0.0,4.0,19,0.00,,,0.00,WUHU216DAVISVP2,2013-01-23 14:35:00,
2013-01-23 06:40:00,46.9,5.5,30.15,NNW,334,3.0,5.0,18,0.00,,,0.00,WUHU216DAVISVP2,2013-01-23 14:40:00,
2013-01-23 06:45:00,47.4,4.7,30.15,NNW,334,0.0,5.0,17,0.00,,,0.00,WUHU216DAVISVP2,2013-01-23 14:45:00,
2013-01-23 06:50:00,47.2,5.8,30.15,NNW,334,1.0,5.0,18,0.00,,,0.00,WUHU216DAVISVP2,2013-01-23 14:50:00,
2013-01-23 06:55:00,47.7,4.9,30.15,NNW,334,0.0,5.0,17,0.00,,,0.00,WUHU216DAVISVP2,2013-01-23 14:55:00,
2013-01-23 07:00:00,47.6,4.9,30.15,NNW,334,0.0,3.0,17,0.00,,,0.00,WUHU216DAVISVP2,2013-01-23 15:00:00,
2013-01-23 07:05:00,47.4,4.7,30.14,NNW,334,1.0,3.0,17,0.00,,,0.00,WUHU216DAVISVP2,2013-01-23 15:05:00,
2013-01-23 07:10:00,47.5,4.8,30.15,NNW,334,0.0,3.0,17,0.00,,,0.00,WUHU216DAVISVP2,2013-01-23 15:10:00,
2013-01-23 07:16:00,47.2,4.5,30.16,NNW,334,0.0,3.0,17,0.00,,,0.00,WUHU216DAVISVP2,2013-01-23 15:16:00,
2013-01-23 07:21:00,46.7,4.1,30.15,NNW,334,0.0,3.0,17,0.00,,,0.00,WUHU216DAVISVP2,2013-01-23 15:21:00,
2013-01-23 07:26:00,46.4,5.1,30.15,NNW,334,0.0,1.0,18,0.00,,,0.00,WUHU216DAVISVP2,2013-01-23 15:26:00,
2013-01-23 07:31:00,46.0,4.8,30.16,NNW,334,0.0,3.0,18,0.00,,,0.00,WUHU216DAVISVP2,2013-01-23 15:31:00,
2013-01-23 07:36:00,45.8,4.6,30.15,NNW,334,3.0,3.0,18,0.00,,,0.00,WUHU216DAVISVP2,2013-01-23 15:36:00,
2013-01-23 07:41:00,45.9,4.7,30.16,NNW,334,0.0,4.0,18,0.00,,,0.00,WUHU216DAVISVP2,2013-01-23 15:41:00,
2013-01-23 07:46:00,46.1,4.9,30.16,NNW,334,0.0,4.0,18,0.00,,,0.00,WUHU216DAVISVP2,2013-01-23 15:46:00,
2013-01-23 07:51:00,46.1,6.0,30.16,NNW,334,0.0,4.0,19,0.00,,,0.00,WUHU216DAVISVP2,2013-01-23 15:51:00,
2013-01-23 07:56:00,46.4,5.1,30.15,NNW,334,0.0,4.0,18,0.00,,,0.00,WUHU216DAVISVP2,2013-01-23 15:56:00,
2013-01-23 08:01:00,46.9,5.5,30.15,NNW,334,0.0,0.0,18,0.00,,,0.00,WUHU216DAVISVP2,2013-01-23 16:01:00,
2013-01-23 08:07:00,47.0,5.6,30.15,NNW,334,0.0,0.0,18,0.00,,,0.00,WUHU216DAVISVP2,2013-01-23 16:07:00,
2013-01-23 08:12:00,47.1,5.7,30.15,NNW,334,3.0,3.0,18,0.00,,,0.00,WUHU216DAVISVP2,2013-01-23 16:12:00,
2013-01-23 08:17:00,48.1,6.5,30.15,NNW,334,3.0,3.0,18,0.00,,,0.00,WUHU216DAVISVP2,2013-01-23 16:17:00,
2013-01-23 08:22:00,48.5,5.6,30.15,NNW,334,2.0,4.0,17,0.00,,,0.00,WUHU216DAVISVP2,2013-01-23 16:22:00,
2013-01-23 08:27:00,49.3,6.3,30.15,NNW,334,0.0,4.0,17,0.00,,,0.00,WUHU216DAVISVP2,2013-01-23 16:27:00,
2013-01-23 08:32:00,50.1,5.6,30.16,NNW,334,2.0,4.0,16,0.00,,,0.00,WUHU216DAVISVP2,2013-01-23 16:32:00,
2013-01-23 08:37:00,51.2,6.5,30.15,NNW,334,1.0,4.0,16,0.00,,,0.00,WUHU216DAVISVP2,2013-01-23 16:37:00,
2013-01-23 08:42:00,51.4,6.6,30.15,NNW,334,1.0,4.0,16,0.00,,,0.00,WUHU216DAVISVP2,2013-01-23 16:42:00,
2013-01-23 08:47:00,51.1,6.4,30.15,NNW,334,0.0,4.0,16,0.00,,,0.00,WUHU216DAVISVP2,2013-01-23 16:47:00,
2013-01-23 08:52:00,50.9,6.2,30.15,NNW,334,0.0,3.0,16,0.00,,,0.00,WUHU216DAVISVP2,2013-01-23 16:52:00,
2013-01-23 08:57:00,51.1,6.4,30.16,NNW,334,0.0,3.0,16,0.00,,,0.00,WUHU216DAVISVP2,2013-01-23 16:57:00,
2013-01-23 09:03:00,51.8,7.0,30.16,NNW,334,1.0,3.0,16,0.00,,,0.00,WUHU216DAVISVP2,2013-01-23 17:03:00,
2013-01-23 09:08:00,52.4,6.0,30.17,NNW,334,0.0,3.0,15,0.00,,,0.00,WUHU216DAVISVP2,2013-01-23 17:08:00,
2013-01-23 09:13:00,53.0,6.5,30.17,NNW,334,0.0,3.0,15,0.00,,,0.00,WUHU216DAVISVP2,2013-01-23 17:13:00,
2013-01-23 09:18:00,53.5,6.9,30.16,NNW,334,0.0,3.0,15,0.00,,,0.00,WUHU216DAVISVP2,2013-01-23 17:18:00,
2013-01-23 09:23:00,54.3,6.0,30.16,NNW,334,0.0,3.0,14,0.00,,,0.00,WUHU216DAVISVP2,2013-01-23 17:23:00,
2013-01-23 09:28:00,55.1,6.6,30.16,NNW,334,0.0,3.0,14,0.00,,,0.00,WUHU216DAVISVP2,2013-01-23 17:28:00,
2013-01-23 09:34:00,56.0,5.7,30.17,NNW,334,0.0,3.0,13,0.00,,,0.00,WUHU216DAVISVP2,2013-01-23 17:34:00,
2013-01-23 09:39:00,56.9,6.4,30.17,NNW,334,0.0,3.0,13,0.00,,,0.00,WUHU216DAVISVP2,2013-01-23 17:39:00,
2013-01-23 09:44:00,57.7,5.2,30.17,NNW,334,5.0,7.0,12,0.00,,,0.00,WUHU216DAVISVP2,2013-01-23 17:44:00,
2013-01-23 09:49:00,58.7,4.1,30.17,NW,315,6.0,8.0,11,0.00,,,0.00,WUHU216DAVISVP2,2013-01-23 17:49:00,
2013-01-23 09:54:00,59.1,4.4,30.17,NW,315,5.0,8.0,11,0.00,,,0.00,WUHU216DAVISVP2,2013-01-23 17:54:00,
2013-01-23 09:59:00,59.4,4.6,30.17,NW,306,6.0,9.0,11,0.00,,,0.00,WUHU216DAVISVP2,2013-01-23 17:59:00,
2013-01-23 10:04:00,59.6,4.8,30.17,NNW,335,7.0,9.0,11,0.00,,,0.00,WUHU216DAVISVP2,2013-01-23 18:04:00,
2013-01-23 10:09:00,59.8,4.9,30.17,NW,314,7.0,9.0,11,0.00,,,0.00,WUHU216DAVISVP2,2013-01-23 18:09:00,
2013-01-23 10:14:00,60.0,5.2,30.17,NW,306,5.0,10.0,11,0.00,,,0.00,WUHU216DAVISVP2,2013-01-23 18:14:00,
2013-01-23 10:20:00,60.2,5.4,30.17,NW,319,4.0,10.0,11,0.00,,,0.00,WUHU216DAVISVP2,2013-01-23 18:20:00,
2013-01-23 10:25:00,60.6,5.5,30.17,NW,304,5.0,10.0,11,0.00,,,0.00,WUHU216DAVISVP2,2013-01-23 18:25:00,
2013-01-23 10:30:00,60.8,3.6,30.17,NW,313,5.0,10.0,10,0.00,,,0.00,WUHU216DAVISVP2,2013-01-23 18:30:00,
2013-01-23 10:35:00,61.0,3.7,30.17,NNW,330,6.0,8.0,10,0.00,,,0.00,WUHU216DAVISVP2,2013-01-23 18:35:00,
2013-01-23 10:40:00,61.1,3.8,30.17,NNW,335,6.0,9.0,10,0.00,,,0.00,WUHU216DAVISVP2,2013-01-23 18:40:00,
2013-01-23 10:45:00,61.0,3.7,30.16,NNW,339,7.0,10.0,10,0.00,,,0.00,WUHU216DAVISVP2,2013-01-23 18:45:00,
2013-01-23 10:50:00,61.0,3.9,30.16,NW,325,6.0,10.0,10,0.00,,,0.00,WUHU216DAVISVP2,2013-01-23 18:50:00,
2013-01-23 10:55:00,61.1,4.0,30.16,NNW,329,7.0,10.0,10,0.00,,,0.00,WUHU216DAVISVP2,2013-01-23 18:55:00,
2013-01-23 11:00:00,61.2,3.9,30.16,NW,324,7.0,10.0,10,0.00,,,0.00,WUHU216DAVISVP2,2013-01-23 19:00:00,
2013-01-23 11:05:00,61.2,3.9,30.16,NNW,330,4.0,9.0,10,0.00,,,0.00,WUHU216DAVISVP2,2013-01-23 19:05:00,
2013-01-23 11:11:00,61.3,4.0,30.15,NW,326,7.0,9.0,10,0.00,,,0.00,WUHU216DAVISVP2,2013-01-23 19:11:00,
2013-01-23 11:16:00,61.4,4.0,30.15,NNW,345,7.0,9.0,10,0.00,,,0.00,WUHU216DAVISVP2,2013-01-23 19:16:00,
2013-01-23 11:21:00,61.4,4.0,30.15,NNW,336,6.0,9.0,10,0.00,,,0.00,WUHU216DAVISVP2,2013-01-23 19:21:00,
2013-01-23 11:29:00,61.4,4.2,30.14,NW,325,7.0,9.0,10,0.00,,,0.00,WUHU216DAVISVP2,2013-01-23 19:29:00,
2013-01-23 11:34:00,61.5,4.3,30.15,NW,324,6.0,8.0,10,0.00,,,0.00,WUHU216DAVISVP2,2013-01-23 19:34:00,
2013-01-23 11:39:00,60.2,3.1,30.14,ENE,70,5.0,8.0,10,0.00,,,0.00,WUHU216DAVISVP2,2013-01-23 19:39:00,
2013-01-23 11:44:00,58.5,3.9,30.13,ENE,78,2.0,8.0,11,0.00,,,0.00,WUHU216DAVISVP2,2013-01-23 19:44:00,
2013-01-23 11:49:00,58.1,3.6,30.13,East,80,2.0,8.0,11,0.00,,,0.00,WUHU216DAVISVP2,2013-01-23 19:49:00,
2013-01-23 11:54:00,57.9,3.4,30.13,East,80,5.0,7.0,11,0.00,,,0.00,WUHU216DAVISVP2,2013-01-23 19:54:00,
2013-01-23 12:00:00,57.7,3.3,30.12,East,80,5.0,7.0,11,0.00,,,0.00,WUHU216DAVISVP2,2013-01-23 20:00:00,
2013-01-23 12:05:00,57.4,3.1,30.12,East,80,3.0,7.0,11,0.00,,,0.00,WUHU216DAVISVP2,2013-01-23 20:05:00,
2013-01-23 12:10:00,57.3,4.9,30.12,East,80,5.0,7.0,12,0.00,,,0.00,WUHU216DAVISVP2,2013-01-23 20:10:00,
2013-01-23 12:15:00,57.3,4.9,30.12,East,80,3.0,5.0,12,0.00,,,0.00,WUHU216DAVISVP2,2013-01-23 20:15:00,
2013-01-23 12:20:00,57.2,4.8,30.11,East,80,3.0,5.0,12,0.00,,,0.00,WUHU216DAVISVP2,2013-01-23 20:20:00,
2013-01-23 12:25:00,57.2,4.8,30.11,East,80,5.0,5.0,12,0.00,,,0.00,WUHU216DAVISVP2,2013-01-23 20:25:00,
2013-01-23 12:30:00,57.0,4.7,30.11,East,80,5.0,6.0,12,0.00,,,0.00,WUHU216DAVISVP2,2013-01-23 20:30:00,
2013-01-23 12:35:00,56.8,4.5,30.10,East,80,2.0,6.0,12,0.00,,,0.00,WUHU216DAVISVP2,2013-01-23 20:35:00,
2013-01-23 12:40:00,56.7,4.5,30.10,East,80,2.0,5.0,12,0.00,,,0.00,WUHU216DAVISVP2,2013-01-23 20:40:00,
2013-01-23 12:45:00,56.7,4.5,30.10,East,80,0.0,5.0,12,0.00,,,0.00,WUHU216DAVISVP2,2013-01-23 20:45:00,
2013-01-23 12:50:00,56.8,4.5,30.10,East,80,0.0,4.0,12,0.00,,,0.00,WUHU216DAVISVP2,2013-01-23 20:50:00,
2013-01-23 12:56:00,57.2,4.8,30.10,East,80,0.0,3.0,12,0.00,,,0.00,WUHU216DAVISVP2,2013-01-23 20:56:00,
2013-01-23 13:01:00,57.6,5.2,30.10,East,80,0.0,3.0,12,0.00,,,0.00,WUHU216DAVISVP2,2013-01-23 21:01:00,
2013-01-23 13:06:00,57.9,3.4,30.10,East,80,1.0,1.0,11,0.00,,,0.00,WUHU216DAVISVP2,2013-01-23 21:06:00,
2013-01-23 13:11:00,58.0,3.5,30.10,East,80,1.0,2.0,11,0.00,,,0.00,WUHU216DAVISVP2,2013-01-23 21:11:00,
2013-01-23 13:16:00,58.1,3.6,30.10,East,80,3.0,3.0,11,0.00,,,0.00,WUHU216DAVISVP2,2013-01-23 21:16:00,
2013-01-23 13:21:00,58.2,3.7,30.10,East,80,3.0,5.0,11,0.00,,,0.00,WUHU216DAVISVP2,2013-01-23 21:21:00,
2013-01-23 13:26:00,58.1,3.6,30.09,East,80,3.0,6.0,11,0.00,,,0.00,WUHU216DAVISVP2,2013-01-23 21:26:00,
2013-01-23 13:31:00,58.0,3.5,30.09,East,80,2.0,6.0,11,0.00,,,0.00,WUHU216DAVISVP2,2013-01-23 21:31:00,
2013-01-23 13:36:00,57.9,3.4,30.09,East,80,3.0,5.0,11,0.00,,,0.00,WUHU216DAVISVP2,2013-01-23 21:36:00,
2013-01-23 13:41:00,57.9,3.4,30.09,East,80,3.0,5.0,11,0.00,,,0.00,WUHU216DAVISVP2,2013-01-23 21:41:00,
2013-01-23 13:47:00,57.9,3.4,30.08,East,80,1.0,4.0,11,0.00,,,0.00,WUHU216DAVISVP2,2013-01-23 21:47:00,
2013-01-23 13:52:00,58.0,3.5,30.08,East,80,2.0,3.0,11,0.00,,,0.00,WUHU216DAVISVP2,2013-01-23 21:52:00,
2013-01-23 13:57:00,58.1,3.6,30.09,East,80,2.0,5.0,11,0.00,,,0.00,WUHU216DAVISVP2,2013-01-23 21:57:00,
2013-01-23 14:02:00,58.2,3.8,30.08,East,80,2.0,5.0,11,0.00,,,0.00,WUHU216DAVISVP2,2013-01-23 22:02:00,
2013-01-23 14:07:00,58.3,3.9,30.08,East,80,2.0,4.0,11,0.00,,,0.00,WUHU216DAVISVP2,2013-01-23 22:07:00,
2013-01-23 14:12:00,58.3,3.9,30.08,East,80,2.0,4.0,11,0.00,,,0.00,WUHU216DAVISVP2,2013-01-23 22:12:00,
2013-01-23 14:17:00,58.2,3.8,30.08,East,80,3.0,3.0,11,0.00,,,0.00,WUHU216DAVISVP2,2013-01-23 22:17:00,
2013-01-23 14:22:00,58.0,3.5,30.08,East,80,1.0,4.0,11,0.00,,,0.00,WUHU216DAVISVP2,2013-01-23 22:22:00,
2013-01-23 14:28:00,58.0,3.5,30.08,East,80,2.0,4.0,11,0.00,,,0.00,WUHU216DAVISVP2,2013-01-23 22:28:00,
2013-01-23 14:33:00,58.0,3.5,30.08,East,80,0.0,4.0,11,0.00,,,0.00,WUHU216DAVISVP2,2013-01-23 22:33:00,
2013-01-23 14:38:00,58.1,3.6,30.08,East,80,0.0,3.0,11,0.00,,,0.00,WUHU216DAVISVP2,2013-01-23 22:38:00,
2013-01-23 14:43:00,58.1,3.6,30.08,East,80,0.0,3.0,11,0.00,,,0.00,WUHU216DAVISVP2,2013-01-23 22:43:00,
2013-01-23 14:48:00,58.2,3.7,30.08,East,80,0.0,3.0,11,0.00,,,0.00,WUHU216DAVISVP2,2013-01-23 22:48:00,
2013-01-23 14:53:00,58.2,3.7,30.08,East,80,0.0,0.0,11,0.00,,,0.00,WUHU216DAVISVP2,2013-01-23 22:53:00,
2013-01-23 14:58:00,58.2,3.7,30.08,East,80,0.0,0.0,11,0.00,,,0.00,WUHU216DAVISVP2,2013-01-23 22:58:00,
2013-01-23 15:03:00,58.2,3.7,30.08,East,80,0.0,0.0,11,0.00,,,0.00,WUHU216DAVISVP2,2013-01-23 23:03:00,
2013-01-23 15:09:00,58.2,5.6,30.08,East,80,0.0,0.0,12,0.00,,,0.00,WUHU216DAVISVP2,2013-01-23 23:09:00,
2013-01-23 15:14:00,58.1,3.6,30.08,East,80,0.0,2.0,11,0.00,,,0.00,WUHU216DAVISVP2,2013-01-23 23:14:00,
2013-01-23 15:19:00,58.0,3.7,30.08,East,80,0.0,2.0,11,0.00,,,0.00,WUHU216DAVISVP2,2013-01-23 23:19:00,
2013-01-23 15:24:00,57.9,3.6,30.08,East,80,1.0,2.0,11,0.00,,,0.00,WUHU216DAVISVP2,2013-01-23 23:24:00,
2013-01-23 15:29:00,57.8,5.4,30.08,East,80,0.0,2.0,12,0.00,,,0.00,WUHU216DAVISVP2,2013-01-23 23:29:00,
2013-01-23 15:34:00,57.8,5.4,30.08,East,80,0.0,2.0,12,0.00,,,0.00,WUHU216DAVISVP2,2013-01-23 23:34:00,
2013-01-23 15:39:00,57.6,5.3,30.08,East,80,1.0,2.0,12,0.00,,,0.00,WUHU216DAVISVP2,2013-01-23 23:39:00,
2013-01-23 15:44:00,57.5,5.2,30.08,East,80,1.0,2.0,12,0.00,,,0.00,WUHU216DAVISVP2,2013-01-23 23:44:00,
2013-01-23 15:49:00,57.3,4.9,30.09,East,80,0.0,2.0,12,0.00,,,0.00,WUHU216DAVISVP2,2013-01-23 23:49:00,
2013-01-23 15:54:00,57.0,4.7,30.09,East,80,0.0,2.0,12,0.00,,,0.00,WUHU216DAVISVP2,2013-01-23 23:54:00,
2013-01-23 15:59:00,56.9,4.6,30.08,East,80,3.0,3.0,12,0.00,,,0.00,WUHU216DAVISVP2,2013-01-23 23:59:00,
2013-01-23 16:05:00,56.7,4.5,30.09,East,80,1.0,3.0,12,0.00,,,0.00,WUHU216DAVISVP2,2013-01-24 00:05:00,
2013-01-23 16:10:00,56.6,4.4,30.09,East,80,2.0,3.0,12,0.00,,,0.00,WUHU216DAVISVP2,2013-01-24 00:10:00,
2013-01-23 16:15:00,56.3,4.1,30.08,East,80,2.0,3.0,12,0.00,,,0.00,WUHU216DAVISVP2,2013-01-24 00:15:00,
2013-01-23 16:20:00,56.0,5.7,30.08,East,80,0.0,3.0,13,0.00,,,0.00,WUHU216DAVISVP2,2013-01-24 00:20:00,
2013-01-23 16:26:00,55.9,5.6,30.08,East,80,1.0,3.0,13,0.00,,,0.00,WUHU216DAVISVP2,2013-01-24 00:26:00,
2013-01-23 16:31:00,55.9,5.6,30.07,East,80,3.0,5.0,13,0.00,,,0.00,WUHU216DAVISVP2,2013-01-24 00:31:00,
2013-01-23 16:36:00,56.0,5.7,30.07,East,80,0.0,5.0,13,0.00,,,0.00,WUHU216DAVISVP2,2013-01-24 00:36:00,
2013-01-23 16:42:00,56.1,5.8,30.07,East,80,0.0,4.0,13,0.00,,,0.00,WUHU216DAVISVP2,2013-01-24 00:42:00,
2013-01-23 16:48:00,56.1,5.8,30.07,East,80,0.0,4.0,13,0.00,,,0.00,WUHU216DAVISVP2,2013-01-24 00:48:00,
2013-01-23 16:53:00,56.2,5.8,30.07,East,80,2.0,3.0,13,0.00,,,0.00,WUHU216DAVISVP2,2013-01-24 00:53:00,
2013-01-23 16:58:00,56.5,6.1,30.07,East,80,2.0,5.0,13,0.00,,,0.00,WUHU216DAVISVP2,2013-01-24 00:58:00,
2013-01-23 17:03:00,56.7,6.2,30.07,ENE,73,4.0,5.0,13,0.00,,,0.00,WUHU216DAVISVP2,2013-01-24 01:03:00,
2013-01-23 17:09:00,56.5,4.3,30.07,ENE,73,0.0,5.0,12,0.00,,,0.00,WUHU216DAVISVP2,2013-01-24 01:09:00,
2013-01-23 17:14:00,56.2,5.8,30.07,ENE,73,0.0,5.0,13,0.00,,,0.00,WUHU216DAVISVP2,2013-01-24 01:14:00,
2013-01-23 17:19:00,56.0,5.7,30.07,ENE,73,0.0,5.0,13,0.00,,,0.00,WUHU216DAVISVP2,2013-01-24 01:19:00,
2013-01-23 17:24:00,55.8,5.5,30.07,ENE,73,3.0,4.0,13,0.00,,,0.00,WUHU216DAVISVP2,2013-01-24 01:24:00,
2013-01-23 17:30:00,55.6,5.4,30.08,ENE,73,0.0,4.0,13,0.00,,,0.00,WUHU216DAVISVP2,2013-01-24 01:30:00,
2013-01-23 17:35:00,55.4,5.2,30.08,ENE,73,3.0,4.0,13,0.00,,,0.00,WUHU216DAVISVP2,2013-01-24 01:35:00,
2013-01-23 17:40:00,55.4,5.2,30.08,ENE,71,4.0,5.0,13,0.00,,,0.00,WUHU216DAVISVP2,2013-01-24 01:40:00,
2013-01-23 17:45:00,55.3,5.1,30.08,ENE,71,0.0,5.0,13,0.00,,,0.00,WUHU216DAVISVP2,2013-01-24 01:45:00,
2013-01-23 17:51:00,54.8,6.4,30.09,ENE,71,3.0,5.0,14,0.00,,,0.00,WUHU216DAVISVP2,2013-01-24 01:51:00,
2013-01-23 17:56:00,54.8,6.4,30.09,ENE,71,4.0,5.0,14,0.00,,,0.00,WUHU216DAVISVP2,2013-01-24 01:56:00,
2013-01-23 18:01:00,55.0,6.6,30.09,ENE,71,3.0,5.0,14,0.00,,,0.00,WUHU216DAVISVP2,2013-01-24 02:01:00,
2013-01-23 18:07:00,55.1,5.0,30.09,ENE,71,2.0,5.0,13,0.00,,,0.00,WUHU216DAVISVP2,2013-01-24 02:07:00,
2013-01-23 18:12:00,54.5,6.2,30.09,ENE,71,0.0,5.0,14,0.00,,,0.00,WUHU216DAVISVP2,2013-01-24 02:12:00,
2013-01-23 18:17:00,54.2,5.9,30.09,ENE,71,2.0,5.0,14,0.00,,,0.00,WUHU216DAVISVP2,2013-01-24 02:17:00,
2013-01-23 18:22:00,54.2,5.9,30.09,ENE,71,1.0,4.0,14,0.00,,,0.00,WUHU216DAVISVP2,2013-01-24 02:22:00,
2013-01-23 18:27:00,54.2,5.9,30.09,ENE,71,3.0,3.0,14,0.00,,,0.00,WUHU216DAVISVP2,2013-01-24 02:27:00,
2013-01-23 18:32:00,54.2,5.9,30.09,ENE,71,2.0,3.0,14,0.00,,,0.00,WUHU216DAVISVP2,2013-01-24 02:32:00,
2013-01-23 18:37:00,54.2,5.9,30.09,ENE,71,0.0,3.0,14,0.00,,,0.00,WUHU216DAVISVP2,2013-01-24 02:37:00,
2013-01-23 18:42:00,54.2,5.9,30.10,ENE,71,0.0,3.0,14,0.00,,,0.00,WUHU216DAVISVP2,2013-01-24 02:42:00,
2013-01-23 18:48:00,54.2,5.9,30.10,ENE,71,2.0,3.0,14,0.00,,,0.00,WUHU216DAVISVP2,2013-01-24 02:48:00,
2013-01-23 18:54:00,53.7,5.5,30.10,ENE,71,3.0,3.0,14,0.00,,,0.00,WUHU216DAVISVP2,2013-01-24 02:54:00,
2013-01-23 18:59:00,54.0,7.3,30.10,ENE,71,1.0,3.0,15,0.00,,,0.00,WUHU216DAVISVP2,2013-01-24 02:59:00,
2013-01-23 19:04:00,54.2,7.5,30.10,ENE,71,0.0,3.0,15,0.00,,,0.00,WUHU216DAVISVP2,2013-01-24 03:04:00,
2013-01-23 19:09:00,53.6,7.0,30.10,ENE,71,2.0,3.0,15,0.00,,,0.00,WUHU216DAVISVP2,2013-01-24 03:09:00,
2013-01-23 19:14:00,53.0,7.9,30.10,ENE,71,2.0,3.0,16,0.00,,,0.00,WUHU216DAVISVP2,2013-01-24 03:14:00,
2013-01-23 19:19:00,53.1,6.6,30.10,ENE,71,0.0,3.0,15,0.00,,,0.00,WUHU216DAVISVP2,2013-01-24 03:19:00,
2013-01-23 19:24:00,52.8,7.8,30.10,ENE,71,0.0,3.0,16,0.00,,,0.00,WUHU216DAVISVP2,2013-01-24 03:24:00,
2013-01-23 19:29:00,52.7,7.7,30.10,ENE,71,1.0,3.0,16,0.00,,,0.00,WUHU216DAVISVP2,2013-01-24 03:29:00,
2013-01-23 19:35:00,52.4,6.0,30.11,ENE,71,1.0,2.0,15,0.00,,,0.00,WUHU216DAVISVP2,2013-01-24 03:35:00,
2013-01-23 19:40:00,52.2,7.3,30.11,ENE,71,0.0,2.0,16,0.00,,,0.00,WUHU216DAVISVP2,2013-01-24 03:40:00,
2013-01-23 19:45:00,52.2,7.3,30.11,ENE,71,2.0,2.0,16,0.00,,,0.00,WUHU216DAVISVP2,2013-01-24 03:45:00,
2013-01-23 19:50:00,52.3,7.4,30.11,ENE,71,1.0,4.0,16,0.00,,,0.00,WUHU216DAVISVP2,2013-01-24 03:50:00,
2013-01-23 19:55:00,52.3,7.4,30.10,ENE,71,0.0,4.0,16,0.00,,,0.00,WUHU216DAVISVP2,2013-01-24 03:55:00,
2013-01-23 20:00:00,52.8,9.1,30.10,ENE,70,4.0,5.0,17,0.00,,,0.00,WUHU216DAVISVP2,2013-01-24 04:00:00,
2013-01-23 20:05:00,53.7,8.5,30.11,NNW,339,1.0,6.0,16,0.00,,,0.00,WUHU216DAVISVP2,2013-01-24 04:05:00,
2013-01-23 20:11:00,53.9,8.7,30.11,NNW,339,3.0,6.0,16,0.00,,,0.00,WUHU216DAVISVP2,2013-01-24 04:11:00,
2013-01-23 20:16:00,53.9,8.7,30.11,NNW,339,0.0,6.0,16,0.00,,,0.00,WUHU216DAVISVP2,2013-01-24 04:16:00,
2013-01-23 20:21:00,53.8,8.6,30.11,NNW,338,4.0,5.0,16,0.00,,,0.00,WUHU216DAVISVP2,2013-01-24 04:21:00,
2013-01-23 20:27:00,53.7,8.5,30.11,NW,319,3.0,7.0,16,0.00,,,0.00,WUHU216DAVISVP2,2013-01-24 04:27:00,
2013-01-23 20:32:00,53.5,8.3,30.11,NW,319,2.0,7.0,16,0.00,,,0.00,WUHU216DAVISVP2,2013-01-24 04:32:00,
2013-01-23 20:37:00,53.2,8.1,30.10,NW,319,4.0,7.0,16,0.00,,,0.00,WUHU216DAVISVP2,2013-01-24 04:37:00,
2013-01-23 20:42:00,53.0,7.9,30.11,NW,319,0.0,6.0,16,0.00,,,0.00,WUHU216DAVISVP2,2013-01-24 04:42:00,
2013-01-23 20:48:00,52.6,9.0,30.11,NW,319,3.0,6.0,17,0.00,,,0.00,WUHU216DAVISVP2,2013-01-24 04:48:00,
2013-01-23 20:53:00,53.0,9.3,30.11,NW,319,1.0,6.0,17,0.00,,,0.00,WUHU216DAVISVP2,2013-01-24 04:53:00,
2013-01-23 20:58:00,52.8,7.8,30.11,NW,319,0.0,5.0,16,0.00,,,0.00,WUHU216DAVISVP2,2013-01-24 04:58:00,
2013-01-23 21:04:00,52.4,8.8,30.11,NW,319,2.0,4.0,17,0.00,,,0.00,WUHU216DAVISVP2,2013-01-24 05:04:00,
2013-01-23 21:09:00,52.5,8.9,30.11,NW,319,3.0,4.0,17,0.00,,,0.00,WUHU216DAVISVP2,2013-01-24 05:09:00,
2013-01-23 21:14:00,52.8,7.8,30.12,NW,319,0.0,4.0,16,0.00,,,0.00,WUHU216DAVISVP2,2013-01-24 05:14:00,
2013-01-23 21:19:00,52.7,9.0,30.12,NW,319,3.0,4.0,17,0.00,,,0.00,WUHU216DAVISVP2,2013-01-24 05:19:00,
2013-01-23 21:25:00,52.8,7.8,30.13,NW,319,0.0,4.0,16,0.00,,,0.00,WUHU216DAVISVP2,2013-01-24 05:25:00,
2013-01-23 21:30:00,52.5,8.9,30.12,NW,319,1.0,4.0,17,0.00,,,0.00,WUHU216DAVISVP2,2013-01-24 05:30:00,
2013-01-23 21:35:00,52.2,8.6,30.12,NW,319,3.0,4.0,17,0.00,,,0.00,WUHU216DAVISVP2,2013-01-24 05:35:00,
2013-01-23 21:41:00,51.9,8.4,30.13,NW,319,1.0,4.0,17,0.00,,,0.00,WUHU216DAVISVP2,2013-01-24 05:41:00,
2013-01-23 21:46:00,52.3,8.7,30.13,NNW,331,4.0,5.0,17,0.00,,,0.00,WUHU216DAVISVP2,2013-01-24 05:46:00,
2013-01-23 21:51:00,52.6,7.6,30.13,NNW,337,3.0,6.0,16,0.00,,,0.00,WUHU216DAVISVP2,2013-01-24 05:51:00,
2013-01-23 21:57:00,52.5,7.5,30.13,NNW,337,1.0,6.0,16,0.00,,,0.00,WUHU216DAVISVP2,2013-01-24 05:57:00,
2013-01-23 22:02:00,52.3,7.4,30.13,NNW,337,2.0,6.0,16,0.00,,,0.00,WUHU216DAVISVP2,2013-01-24 06:02:00,
2013-01-23 22:08:00,52.2,8.6,30.13,NNW,337,2.0,5.0,17,0.00,,,0.00,WUHU216DAVISVP2,2013-01-24 06:08:00,
2013-01-23 22:13:00,52.6,8.9,30.13,NNW,337,1.0,3.0,17,0.00,,,0.00,WUHU216DAVISVP2,2013-01-24 06:13:00,
2013-01-23 22:18:00,52.9,7.8,30.13,NNW,337,0.0,3.0,16,0.00,,,0.00,WUHU216DAVISVP2,2013-01-24 06:18:00,
2013-01-23 22:23:00,53.1,8.0,30.13,NNW,337,2.0,3.0,16,0.00,,,0.00,WUHU216DAVISVP2,2013-01-24 06:23:00,
2013-01-23 22:28:00,53.2,9.4,30.13,NNW,336,2.0,5.0,17,0.00,,,0.00,WUHU216DAVISVP2,2013-01-24 06:28:00,
2013-01-23 22:33:00,53.2,9.4,30.13,NNW,336,3.0,5.0,17,0.00,,,0.00,WUHU216DAVISVP2,2013-01-24 06:33:00,
2013-01-23 22:38:00,53.2,9.4,30.13,NNW,336,1.0,5.0,17,0.00,,,0.00,WUHU216DAVISVP2,2013-01-24 06:38:00,
2013-01-23 22:44:00,53.4,9.6,30.13,NNW,336,3.0,5.0,17,0.00,,,0.00,WUHU216DAVISVP2,2013-01-24 06:44:00,
2013-01-23 22:49:00,53.8,9.9,30.13,NNW,336,4.0,5.0,17,0.00,,,0.00,WUHU216DAVISVP2,2013-01-24 06:49:00,
2013-01-23 22:54:00,54.6,11.9,30.13,NNW,335,4.0,5.0,18,0.00,,,0.00,WUHU216DAVISVP2,2013-01-24 06:54:00,
2013-01-23 22:59:00,55.1,12.3,30.13,NNW,340,3.0,6.0,18,0.00,,,0.00,WUHU216DAVISVP2,2013-01-24 06:59:00,
2013-01-23 23:04:00,55.2,11.1,30.13,NNE,13,5.0,6.0,17,0.00,,,0.00,WUHU216DAVISVP2,2013-01-24 07:04:00,
2013-01-23 23:09:00,55.4,12.5,30.13,NNE,22,7.0,8.0,18,0.00,,,0.00,WUHU216DAVISVP2,2013-01-24 07:09:00,
2013-01-23 23:14:00,55.6,11.4,30.13,NNE,26,3.0,10.0,17,0.00,,,0.00,WUHU216DAVISVP2,2013-01-24 07:14:00,
2013-01-23 23:20:00,55.6,11.4,30.12,NNE,26,2.0,10.0,17,0.00,,,0.00,WUHU216DAVISVP2,2013-01-24 07:20:00,
2013-01-23 23:25:00,55.4,14.9,30.12,NNW,344,5.0,10.0,20,0.00,,,0.00,WUHU216DAVISVP2,2013-01-24 07:25:00,
2013-01-23 23:30:00,55.2,15.8,30.12,NNW,346,5.0,11.0,21,0.00,,,0.00,WUHU216DAVISVP2,2013-01-24 07:30:00,
2013-01-23 23:35:00,55.1,16.8,30.11,NNW,338,6.0,15.0,22,0.00,,,0.00,WUHU216DAVISVP2,2013-01-24 07:35:00,
2013-01-23 23:40:00,55.1,16.8,30.12,NNW,339,7.0,15.0,22,0.00,,,0.00,WUHU216DAVISVP2,2013-01-24 07:40:00,
2013-01-23 23:46:00,54.9,16.6,30.12,NNW,343,5.0,15.0,22,0.00,,,0.00,WUHU216DAVISVP2,2013-01-24 07:46:00,
2013-01-23 23:51:00,54.8,15.5,30.12,NNW,342,9.0,15.0,21,0.00,,,0.00,WUHU216DAVISVP2,2013-01-24 07:51:00,
2013-01-23 23:56:00,54.6,16.4,30.12,NNW,327,5.0,13.0,22,0.00,,,0.00,WUHU216DAVISVP2,2013-01-24 07:56:00,